Time;durP1;ratioP1;P1;durP2;ratioP2;P2;SDS_P1;SDS_P2;PMS_P1;PMS_P2;Temp;Humidity;BMP_temperature;BMP_pressure;BME280_temperature;BME280_humidity;BME280_pressure;Samples;Min_cycle;Max_cycle;Signal;HPM_P1;HPM_P2
2022/09/26 00:00:49;;;;;;;14.83;10.57;;;;;;;14.06;97.79;97672.00;4179760;28;20750;-82
2022/09/26 00:02:52;;;;;;;13.87;10.70;;;;;;;14.08;97.64;97680.56;4158150;28;20672;-82
2022/09/26 00:04:55;;;;;;;13.60;10.03;;;;;;;14.07;98.11;97673.63;4179040;28;20673;-82
2022/09/26 00:06:59;;;;;;;15.50;9.73;;;;;;;14.08;97.99;97669.25;4176861;28;20657;-82
2022/09/26 00:09:02;;;;;;;15.73;10.73;;;;;;;14.05;98.18;97666.88;4186160;28;20653;-82
2022/09/26 00:11:07;;;;;;;12.80;10.03;;;;;;;14.03;97.91;97674.03;4179782;28;21155;-82
2022/09/26 00:13:09;;;;;;;14.00;10.70;;;;;;;14.02;98.05;97681.06;4175773;28;20650;-82
2022/09/26 00:15:12;;;;;;;13.63;10.07;;;;;;;14.02;98.95;97675.00;4175128;28;21032;-82
2022/09/26 00:17:17;;;;;;;12.30;10.03;;;;;;;14.02;98.02;97675.81;4179368;28;20684;-82
2022/09/26 00:19:20;;;;;;;14.77;9.87;;;;;;;14.01;98.27;97674.19;4181381;28;20655;-82
2022/09/26 00:21:24;;;;;;;13.67;10.37;;;;;;;14.00;98.13;97672.50;4177827;28;21125;-82
2022/09/26 00:23:27;;;;;;;14.90;10.00;;;;;;;14.00;99.15;97675.13;4180589;28;20703;-82
2022/09/26 00:25:30;;;;;;;13.20;9.57;;;;;;;13.99;98.89;97670.84;4157224;28;20704;-82
2022/09/26 00:27:33;;;;;;;15.60;10.70;;;;;;;14.00;98.86;97669.88;4175589;28;20697;-82
2022/09/26 00:29:36;;;;;;;16.13;10.90;;;;;;;14.02;99.13;97667.13;4176705;28;20691;-82
2022/09/26 00:31:43;;;;;;;15.23;10.77;;;;;;;14.01;99.06;97666.31;4187831;28;21093;-82
2022/09/26 00:33:48;;;;;;;17.07;11.90;;;;;;;14.02;99.14;97660.09;4175214;28;20654;-82
2022/09/26 00:35:51;;;;;;;17.00;12.17;;;;;;;14.01;99.28;97660.22;4175672;28;20673;-82
2022/09/26 00:37:54;;;;;;;18.17;12.87;;;;;;;13.98;98.89;97660.50;4176196;28;20784;-82
2022/09/26 00:39:58;;;;;;;15.87;11.90;;;;;;;13.96;99.03;97660.63;4172723;28;20698;-82
2022/09/26 00:42:01;;;;;;;16.30;12.60;;;;;;;13.95;98.46;97659.00;4178578;28;20660;-82
2022/09/26 00:44:33;;;;;;;17.90;12.40;;;;;;;13.96;98.62;97658.00;4177132;28;20661;-82
2022/09/26 00:46:38;;;;;;;18.70;13.13;;;;;;;13.94;98.92;97657.31;4190110;28;20657;-82
2022/09/26 00:48:42;;;;;;;18.60;13.20;;;;;;;13.96;98.87;97657.19;4198102;28;20655;-82
2022/09/26 00:50:47;;;;;;;20.33;13.83;;;;;;;13.94;98.95;97659.94;4177131;28;20651;-82
2022/09/26 00:52:55;;;;;;;19.93;13.30;;;;;;;13.95;99.01;97658.13;4178188;28;20688;-82
2022/09/26 00:55:00;;;;;;;20.70;13.17;;;;;;;13.96;99.50;97655.38;4177672;28;20661;-82
2022/09/26 00:57:07;;;;;;;21.13;13.17;;;;;;;13.96;99.33;97654.56;4178764;28;20712;-82
2022/09/26 00:59:15;;;;;;;16.17;12.20;;;;;;;13.97;98.97;97664.09;4194702;28;20707;-82
2022/09/26 01:01:19;;;;;;;15.10;12.37;;;;;;;13.95;99.20;97660.75;4161507;28;20654;-83
2022/09/26 01:03:23;;;;;;;18.80;12.47;;;;;;;13.95;98.90;97652.88;4175034;28;21088;-82
2022/09/26 01:05:26;;;;;;;16.00;12.70;;;;;;;13.96;100.00;97644.06;4158411;28;20694;-82
2022/09/26 01:07:30;;;;;;;15.13;11.80;;;;;;;13.94;98.54;97646.84;4162386;28;21049;-82
2022/09/26 01:09:34;;;;;;;18.20;11.87;;;;;;;13.92;98.66;97646.16;4184444;28;20655;-82
2022/09/26 01:11:38;;;;;;;15.57;12.40;;;;;;;13.91;99.89;97641.84;4175422;28;20657;-82
2022/09/26 01:13:43;;;;;;;17.03;12.47;;;;;;;13.91;98.58;97643.66;4176202;28;20778;-82
2022/09/26 01:15:45;;;;;;;17.90;12.83;;;;;;;13.90;99.53;97642.00;4159767;28;20676;-82
2022/09/26 01:17:49;;;;;;;15.37;12.40;;;;;;;13.90;99.08;97644.63;4169819;28;20655;-83
2022/09/26 01:20:02;;;;;;;18.70;13.10;;;;;;;13.90;98.96;97637.56;4161353;28;20742;-82
2022/09/26 01:22:19;;;;;;;17.63;12.70;;;;;;;13.89;98.88;97642.94;4173420;28;20647;-83
2022/09/26 01:24:47;;;;;;;22.10;13.07;;;;;;;13.87;98.70;97643.09;4167637;28;20776;-82
2022/09/26 01:27:18;;;;;;;17.07;13.23;;;;;;;13.86;98.83;97644.06;4164469;28;20664;-82
2022/09/26 01:30:01;;;;;;;17.00;12.80;;;;;;;13.84;98.63;97643.34;4174854;28;20646;-82
2022/09/26 01:34:40;;;;;;;19.53;13.60;;;;;;;13.81;99.19;97645.44;4192199;28;20629;-82
2022/09/26 01:37:01;;;;;;;16.90;13.10;;;;;;;13.79;98.89;97645.56;4176496;28;20665;-82
2022/09/26 01:39:14;;;;;;;21.70;12.73;;;;;;;13.78;98.70;97648.31;4189260;28;21086;-82
2022/09/26 01:41:32;;;;;;;16.13;12.73;;;;;;;13.78;99.48;97651.75;4174109;28;20725;-83
2022/09/26 01:43:41;;;;;;;17.33;13.37;;;;;;;13.80;99.52;97649.00;4191499;28;20667;-83
2022/09/26 01:45:50;;;;;;;20.83;13.60;;;;;;;13.79;99.96;97652.59;4172985;28;20696;-82
2022/09/26 01:47:58;;;;;;;17.27;12.20;;;;;;;13.79;99.08;97648.19;4174658;28;20675;-82
2022/09/26 01:50:05;;;;;;;19.03;13.17;;;;;;;13.79;99.21;97648.19;4173211;28;21062;-82
2022/09/26 01:52:11;;;;;;;18.90;13.73;;;;;;;13.81;99.51;97650.66;4173312;28;20636;-82
2022/09/26 01:54:18;;;;;;;19.70;13.40;;;;;;;13.80;99.41;97649.84;4175145;28;20644;-82
2022/09/26 01:56:23;;;;;;;18.80;13.20;;;;;;;13.79;99.29;97648.19;4191191;28;20643;-82
2022/09/26 01:58:29;;;;;;;15.20;12.57;;;;;;;13.78;99.40;97641.28;4171796;28;20692;-82
2022/09/26 02:00:33;;;;;;;20.20;14.50;;;;;;;13.77;99.65;97642.25;4156711;28;21087;-82
2022/09/26 02:02:39;;;;;;;21.43;14.00;;;;;;;13.78;99.23;97640.44;4176125;28;20714;-82
2022/09/26 02:04:45;;;;;;;20.10;12.97;;;;;;;13.78;99.28;97646.50;4191389;28;21681;-82
2022/09/26 02:06:51;;;;;;;15.23;11.97;;;;;;;13.77;98.95;97639.63;4159916;28;20650;-82
2022/09/26 02:08:58;;;;;;;16.27;12.10;;;;;;;13.77;99.27;97646.66;4172425;28;21238;-82
2022/09/26 02:11:05;;;;;;;17.50;12.17;;;;;;;13.77;99.05;97644.88;4178432;28;21326;-82
2022/09/26 02:13:11;;;;;;;20.17;12.30;;;;;;;13.75;99.37;97638.09;4192092;28;20646;-82
2022/09/26 02:15:17;;;;;;;18.03;12.40;;;;;;;13.73;99.52;97637.41;4155128;28;20651;-82
2022/09/26 02:17:25;;;;;;;16.67;12.27;;;;;;;13.72;99.23;97636.56;4168511;28;20737;-82
2022/09/26 02:19:29;;;;;;;17.07;12.60;;;;;;;13.68;99.15;97637.81;4194620;28;21075;-82
2022/09/26 02:21:34;;;;;;;16.50;12.87;;;;;;;13.66;99.23;97631.03;4158998;28;20679;-82
2022/09/26 02:23:37;;;;;;;14.23;11.23;;;;;;;13.64;98.91;97637.41;4191649;28;20746;-82
2022/09/26 02:25:40;;;;;;;14.17;11.27;;;;;;;13.58;99.01;97628.28;4172849;28;20935;-82
2022/09/26 02:27:43;;;;;;;13.60;11.40;;;;;;;13.56;99.26;97627.59;4157210;28;20711;-82
2022/09/26 02:29:46;;;;;;;13.03;10.80;;;;;;;13.57;98.46;97628.41;4174295;28;20875;-82
2022/09/26 02:31:55;;;;;;;17.60;10.90;;;;;;;13.54;98.27;97626.06;4172621;28;20691;-82
2022/09/26 02:33:59;;;;;;;14.63;11.63;;;;;;;13.53;98.65;97619.16;4171731;28;20657;-82
2022/09/26 02:36:04;;;;;;;18.07;11.77;;;;;;;13.54;99.07;97618.19;4172327;28;20719;-82
2022/09/26 02:38:08;;;;;;;14.50;10.13;;;;;;;13.55;98.60;97625.09;4173972;28;21215;-82
2022/09/26 02:40:25;;;;;;;16.93;10.23;;;;;;;13.53;99.09;97614.75;4159868;28;20681;-82
2022/09/26 02:42:35;;;;;;;16.83;10.83;;;;;;;13.53;99.12;97624.38;4173770;28;20652;-82
2022/09/26 02:45:00;;;;;;;13.83;9.83;;;;;;;13.52;98.98;97617.50;4159104;28;20655;-82
2022/09/26 02:47:24;;;;;;;13.30;10.17;;;;;;;13.48;99.10;97608.25;4158439;28;20704;-82
2022/09/26 02:49:43;;;;;;;12.10;9.40;;;;;;;13.45;99.62;97614.56;4181834;28;21287;-82
2022/09/26 02:52:06;;;;;;;12.00;9.57;;;;;;;13.41;99.05;97607.13;4176959;28;20633;-82
2022/09/26 02:54:16;;;;;;;13.67;9.90;;;;;;;13.38;98.74;97610.00;4175562;28;20648;-82
2022/09/26 02:56:35;;;;;;;12.50;9.67;;;;;;;13.34;98.57;97608.63;4193454;28;20750;-82
2022/09/26 02:58:46;;;;;;;14.40;9.60;;;;;;;13.32;98.11;97602.69;4177744;28;21079;-82
2022/09/26 03:00:58;;;;;;;11.67;9.13;;;;;;;13.23;98.20;97603.50;4190839;28;20655;-82
2022/09/26 03:03:06;;;;;;;12.73;8.80;;;;;;;13.18;98.12;97598.66;4180952;28;20746;-82
2022/09/26 03:05:11;;;;;;;11.70;9.20;;;;;;;13.13;98.80;97597.41;4191497;28;20670;-82
2022/09/26 03:07:18;;;;;;;12.87;9.40;;;;;;;13.11;98.56;97590.63;4178108;28;20685;-82
2022/09/26 03:09:24;;;;;;;12.70;9.13;;;;;;;13.08;99.16;97586.50;4176762;28;20652;-82
2022/09/26 03:11:28;;;;;;;15.43;9.17;;;;;;;13.06;98.43;97585.78;4191553;28;20652;-82
2022/09/26 03:13:34;;;;;;;12.30;9.70;;;;;;;13.06;98.68;97584.97;4172658;28;20644;-82
2022/09/26 03:15:39;;;;;;;19.20;9.40;;;;;;;13.03;98.86;97577.38;4172552;28;20648;-82
2022/09/26 03:17:44;;;;;;;13.73;9.17;;;;;;;13.01;99.01;97574.06;4175283;28;20648;-82
2022/09/26 03:19:53;;;;;;;12.07;8.73;;;;;;;12.99;98.71;97583.81;4166638;28;20660;-82
2022/09/26 03:21:56;;;;;;;13.50;9.97;;;;;;;12.96;98.98;97574.47;4180484;28;20680;-82
2022/09/26 03:24:00;;;;;;;11.97;9.27;;;;;;;12.96;98.51;97574.47;4161799;28;21030;-82
2022/09/26 03:26:11;;;;;;;12.50;9.00;;;;;;;12.96;99.05;97565.75;4173882;28;20698;-82
2022/09/26 03:28:22;;;;;;;14.27;9.00;;;;;;;12.95;99.46;97564.94;4160362;28;21204;-82
2022/09/26 03:30:25;;;;;;;14.80;9.47;;;;;;;12.94;99.65;97562.44;4159264;28;20723;-82
2022/09/26 03:32:49;;;;;;;13.57;8.63;;;;;;;12.94;99.51;97568.50;4177872;28;20689;-82
2022/09/26 03:34:52;;;;;;;12.10;8.63;;;;;;;12.92;98.72;97559.97;4177211;28;20698;-82
2022/09/26 03:36:55;;;;;;;14.23;9.70;;;;;;;12.90;99.49;97551.44;4177262;28;21082;-82
2022/09/26 03:38:59;;;;;;;12.70;9.03;;;;;;;12.90;98.62;97561.91;4190696;28;20678;-82
2022/09/26 03:41:25;;;;;;;11.47;9.80;;;;;;;12.87;98.18;97550.84;4177171;28;20629;-82
2022/09/26 03:43:42;;;;;;;11.80;9.30;;;;;;;12.84;98.21;97551.97;4177845;28;20640;-82
2022/09/26 03:45:46;;;;;;;11.07;8.73;;;;;;;12.84;99.11;97548.53;4157830;28;21032;-82
2022/09/26 03:47:56;;;;;;;13.13;8.93;;;;;;;12.83;99.25;97550.28;4156073;28;20645;-82
2022/09/26 03:50:00;;;;;;;12.97;9.10;;;;;;;12.83;99.00;97544.22;4172348;28;21420;-82
2022/09/26 03:52:03;;;;;;;13.53;9.80;;;;;;;12.83;98.89;97544.22;4186052;28;20682;-82
2022/09/26 03:54:06;;;;;;;12.67;10.37;;;;;;;12.82;99.24;97545.16;4178869;28;20641;-81
2022/09/26 03:56:11;;;;;;;13.07;9.93;;;;;;;12.83;99.29;97545.06;4177014;28;20691;-82
2022/09/26 03:58:15;;;;;;;12.43;10.20;;;;;;;12.81;99.19;97540.91;4192517;28;20648;-82
2022/09/26 04:00:18;;;;;;;12.53;9.50;;;;;;;12.77;99.28;97537.69;4174322;28;20644;-82
2022/09/26 04:02:22;;;;;;;11.97;9.17;;;;;;;12.74;99.04;97532.72;4187909;28;20662;-82
2022/09/26 04:04:38;;;;;;;14.70;10.13;;;;;;;12.76;98.95;97528.22;4176066;28;20668;-82
2022/09/26 04:06:43;;;;;;;14.50;9.97;;;;;;;12.77;99.44;97526.41;4191870;28;20655;-81
2022/09/26 04:08:48;;;;;;;17.27;10.67;;;;;;;12.76;98.13;97530.81;4174648;28;20727;-82
2022/09/26 04:10:51;;;;;;;12.50;10.47;;;;;;;12.76;98.28;97530.81;4191719;28;21229;-82
2022/09/26 04:12:55;;;;;;;15.70;10.43;;;;;;;12.76;98.28;97524.75;4176364;28;20644;-82
2022/09/26 04:15:01;;;;;;;11.30;9.60;;;;;;;12.78;98.99;97520.22;4172824;28;20751;-82
2022/09/26 04:17:07;;;;;;;13.47;9.07;;;;;;;12.74;97.98;97519.63;4178531;28;20642;-82
2022/09/26 04:19:18;;;;;;;14.20;9.77;;;;;;;12.71;98.84;97512.06;4191107;28;21221;-82
2022/09/26 04:21:21;;;;;;;13.00;9.37;;;;;;;12.67;98.55;97516.84;4178291;28;20649;-82
2022/09/26 04:23:24;;;;;;;11.20;9.30;;;;;;;12.64;97.22;97507.47;4168304;28;21248;-82
2022/09/26 04:25:28;;;;;;;14.27;10.30;;;;;;;12.64;97.98;97507.47;4158078;28;20650;-82
2022/09/26 04:27:31;;;;;;;12.77;9.47;;;;;;;12.64;98.37;97507.47;4192697;28;20643;-82
2022/09/26 04:29:34;;;;;;;12.73;9.50;;;;;;;12.61;98.04;97507.75;4159422;28;20707;-81
2022/09/26 04:32:07;;;;;;;12.17;10.03;;;;;;;12.60;98.34;97500.03;4160414;28;20656;-82
2022/09/26 04:34:23;;;;;;;11.53;10.03;;;;;;;12.57;98.53;97498.50;4188283;28;20639;-82
2022/09/26 04:36:29;;;;;;;15.33;9.23;;;;;;;12.54;98.13;97490.09;4175426;28;20692;-82
2022/09/26 04:38:32;;;;;;;15.60;10.17;;;;;;;12.51;97.88;97495.56;4158923;28;20745;-82
2022/09/26 04:40:37;;;;;;;14.23;10.53;;;;;;;12.48;98.90;97496.69;4179127;28;20648;-82
2022/09/26 04:42:45;;;;;;;12.17;9.10;;;;;;;12.44;96.77;97486.63;4170780;28;20658;-82
2022/09/26 04:44:48;;;;;;;11.47;8.70;;;;;;;12.38;96.07;97487.94;4172374;28;20660;-82
2022/09/26 04:46:51;;;;;;;16.07;9.97;;;;;;;12.32;95.59;97490.28;4173427;28;20656;-82
2022/09/26 04:49:00;;;;;;;12.40;10.13;;;;;;;12.26;95.45;97488.16;4186527;28;20643;-82
2022/09/26 04:51:06;;;;;;;14.07;10.30;;;;;;;12.24;96.18;97482.25;4173335;28;20655;-82
2022/09/26 04:53:08;;;;;;;13.27;10.33;;;;;;;12.24;96.03;97487.47;4159363;28;20703;-83
2022/09/26 04:55:22;;;;;;;13.47;9.97;;;;;;;12.24;96.92;97477.03;4169716;28;21314;-83
2022/09/26 04:57:26;;;;;;;14.27;11.20;;;;;;;12.26;97.37;97477.72;4169668;28;20730;-82
2022/09/26 04:59:29;;;;;;;16.80;11.33;;;;;;;12.26;98.88;97480.31;4159300;28;21319;-82
2022/09/26 05:01:37;;;;;;;13.17;10.20;;;;;;;12.24;98.49;97466.56;4156704;28;20695;-82
2022/09/26 05:03:48;;;;;;;12.20;10.03;;;;;;;12.22;97.54;97467.66;4177293;28;20707;-82
2022/09/26 05:05:53;;;;;;;14.40;10.80;;;;;;;12.16;97.83;97462.94;4187629;28;20762;-82
2022/09/26 05:07:57;;;;;;;12.00;10.10;;;;;;;12.13;97.55;97471.84;4160757;28;21649;-82
2022/09/26 05:10:00;;;;;;;13.70;10.20;;;;;;;12.06;96.19;97462.06;4153609;28;20671;-82
2022/09/26 05:12:05;;;;;;;15.50;10.57;;;;;;;12.01;97.41;97465.06;4174598;28;21218;-82
2022/09/26 05:14:09;;;;;;;16.07;10.20;;;;;;;11.97;97.82;97463.66;4177356;28;20656;-82
2022/09/26 05:16:13;;;;;;;12.97;9.40;;;;;;;11.97;96.10;97457.63;4179834;28;20675;-82
2022/09/26 05:18:17;;;;;;;12.43;9.87;;;;;;;11.95;96.01;97460.34;4170263;28;20652;-82
2022/09/26 05:20:23;;;;;;;15.53;10.77;;;;;;;11.91;97.34;97458.94;4173806;28;21052;-83
2022/09/26 05:22:36;;;;;;;17.47;10.53;;;;;;;11.90;96.50;97461.69;4183347;28;21264;-84
2022/09/26 05:27:00;;;;;;;14.20;9.40;;;;;;;11.84;97.58;97452.56;4167290;28;20699;-84
2022/09/26 05:29:03;;;;;;;14.60;9.37;;;;;;;11.78;97.04;97455.69;4175790;28;20741;-84
2022/09/26 05:31:32;;;;;;;13.37;9.90;;;;;;;11.72;95.68;97444.94;4172669;28;20672;-84
2022/09/26 05:33:37;;;;;;;16.83;9.00;;;;;;;11.68;94.68;97453.13;4160952;28;20654;-84
2022/09/26 05:35:41;;;;;;;20.97;10.90;;;;;;;11.60;94.41;97443.31;4158473;28;20645;-84
2022/09/26 05:37:45;;;;;;;12.10;9.17;;;;;;;11.56;95.19;97436.72;4192471;28;20650;-84
2022/09/26 05:42:14;;;;;;;13.07;8.73;;;;;;;11.50;94.14;97437.22;4186272;28;21250;-84
2022/09/26 05:44:18;;;;;;;13.87;9.10;;;;;;;11.50;95.62;97441.59;4173170;28;20698;-83
2022/09/26 05:46:22;;;;;;;14.00;10.33;;;;;;;11.49;96.42;97439.97;4179819;28;20643;-83
2022/09/26 05:48:28;;;;;;;12.00;8.90;;;;;;;11.50;95.16;97442.44;4186686;28;20675;-83
2022/09/26 05:50:31;;;;;;;13.37;10.23;;;;;;;11.56;95.68;97441.94;4173538;28;21083;-83
2022/09/26 05:52:34;;;;;;;13.97;10.23;;;;;;;11.63;98.04;97450.09;4191300;28;20789;-84
2022/09/26 05:54:39;;;;;;;13.63;10.23;;;;;;;11.68;96.17;97442.69;4161120;28;20655;-84
2022/09/26 05:57:02;;;;;;;11.40;9.70;;;;;;;11.71;98.34;97445.06;4175850;28;21160;-83
2022/09/26 05:59:25;;;;;;;13.00;9.27;;;;;;;11.74;98.49;97439.56;4174705;28;20652;-84
2022/09/26 06:02:00;;;;;;;11.20;8.47;;;;;;;11.76;97.51;97438.50;4174396;28;21246;-84
2022/09/26 06:04:23;;;;;;;10.53;9.30;;;;;;;11.76;96.26;97439.31;4168831;28;20649;-84
2022/09/26 06:06:47;;;;;;;11.07;8.00;;;;;;;11.77;95.73;97434.91;4170858;28;21053;-84
2022/09/26 06:08:52;;;;;;;10.60;8.43;;;;;;;11.77;96.58;97435.75;4171153;28;21288;-83
2022/09/26 06:11:04;;;;;;;13.10;9.60;;;;;;;11.76;95.87;97436.72;4179751;28;20648;-83
2022/09/26 06:13:08;;;;;;;11.33;8.23;;;;;;;11.75;94.98;97437.66;4161299;28;21072;-83
2022/09/26 06:15:18;;;;;;;11.90;8.90;;;;;;;11.79;95.40;97439.06;4177686;28;20739;-83
2022/09/26 06:17:21;;;;;;;11.07;8.70;;;;;;;11.83;96.80;97439.63;4193077;28;20700;-84
2022/09/26 06:19:24;;;;;;;12.67;9.20;;;;;;;11.87;95.85;97441.84;4173681;28;20651;-84
2022/09/26 06:21:27;;;;;;;13.10;9.67;;;;;;;11.94;96.61;97443.00;4161779;28;21170;-83
2022/09/26 06:23:37;;;;;;;13.00;9.80;;;;;;;12.00;95.71;97436.44;4178883;28;20683;-83
2022/09/26 06:25:42;;;;;;;15.13;10.63;;;;;;;12.07;97.27;97427.97;4160966;28;20659;-84
2022/09/26 06:27:47;;;;;;;13.57;9.87;;;;;;;12.17;96.29;97433.22;4178736;28;20643;-83
2022/09/26 06:29:50;;;;;;;12.70;8.97;;;;;;;12.27;96.36;97433.13;4191572;28;21252;-84
2022/09/26 06:31:53;;;;;;;15.60;8.80;;;;;;;12.39;95.70;97434.69;4176585;28;21254;-83
2022/09/26 06:34:17;;;;;;;12.57;9.30;;;;;;;12.50;96.15;97442.44;4157647;28;21003;-84
2022/09/26 06:36:24;;;;;;;11.67;9.20;;;;;;;12.55;96.39;97442.88;4180714;28;21053;-83
2022/09/26 06:38:28;;;;;;;12.10;8.33;;;;;;;12.60;95.20;97440.69;4157454;28;21269;-83
2022/09/26 06:40:32;;;;;;;21.00;16.43;;;;;;;12.64;96.72;97441.25;4193466;28;20842;-83
2022/09/26 06:42:36;;;;;;;10.67;8.03;;;;;;;12.65;95.40;97438.50;4174548;28;20647;-84
2022/09/26 06:45:08;;;;;;;11.47;8.70;;;;;;;12.68;96.18;97431.22;4151688;28;20656;-84
2022/09/26 06:47:30;;;;;;;12.63;8.90;;;;;;;12.71;96.31;97432.75;4177590;28;20648;-84
2022/09/26 06:49:53;;;;;;;11.80;8.30;;;;;;;12.76;95.67;97434.00;4178532;28;20723;-83
2022/09/26 06:52:01;;;;;;;13.47;9.40;;;;;;;12.78;95.52;97428.63;4178372;28;20679;-83
2022/09/26 06:54:04;;;;;;;9.80;7.90;;;;;;;12.84;95.52;97434.19;4178144;28;20644;-83
2022/09/26 06:56:07;;;;;;;10.33;8.13;;;;;;;12.91;95.25;97426.63;4176169;28;20646;-83
2022/09/26 06:58:10;;;;;;;11.83;8.83;;;;;;;12.96;94.82;97427.88;4175601;28;20670;-83
2022/09/26 07:00:29;;;;;;;11.57;8.37;;;;;;;13.07;96.01;97432.16;4175501;28;21266;-84
2022/09/26 07:02:49;;;;;;;11.53;8.80;;;;;;;13.20;95.66;97423.91;4174791;28;20649;-86
2022/09/26 07:05:01;;;;;;;12.97;9.20;;;;;;;13.46;94.75;97434.66;4154343;28;20672;-84
2022/09/26 07:07:08;;;;;;;10.10;8.40;;;;;;;13.58;95.68;97429.13;4177910;28;20664;-82
2022/09/26 07:09:11;;;;;;;10.30;8.57;;;;;;;13.73;94.73;97427.75;4172220;28;20711;-83
2022/09/26 07:11:36;;;;;;;12.00;7.93;;;;;;;14.09;92.08;97430.47;4175246;28;21282;-83
2022/09/26 07:14:00;;;;;;;17.63;9.90;;;;;;;14.21;91.22;97427.50;4177937;28;20727;-83
2022/09/26 07:16:06;;;;;;;15.93;10.13;;;;;;;14.35;92.92;97423.59;4177235;28;20656;-82
2022/09/26 07:18:27;;;;;;;16.07;10.33;;;;;;;14.62;92.79;97424.44;4173376;28;20647;-82
2022/09/26 07:20:52;;;;;;;12.33;9.50;;;;;;;14.64;91.45;97423.34;4177708;28;21157;-82
2022/09/26 07:23:22;;;;;;;12.33;8.83;;;;;;;14.64;91.56;97431.22;4174942;28;20644;-82
2022/09/26 07:25:25;;;;;;;10.93;8.43;;;;;;;14.62;91.24;97427.06;4160532;28;20644;-82
2022/09/26 07:27:29;;;;;;;9.90;8.83;;;;;;;14.55;90.17;97417.28;4161396;28;20649;-82
2022/09/26 07:29:33;;;;;;;9.83;8.43;;;;;;;14.52;91.24;97428.09;4161741;28;21451;-82
2022/09/26 07:31:37;;;;;;;13.07;10.00;;;;;;;14.56;90.97;97425.03;4167935;28;20760;-82
2022/09/26 07:33:41;;;;;;;11.90;9.87;;;;;;;14.60;90.53;97431.66;4178584;28;20645;-82
2022/09/26 07:35:47;;;;;;;12.60;9.90;;;;;;;14.61;90.24;97426.25;4171873;28;20649;-82
2022/09/26 07:37:51;;;;;;;11.03;9.23;;;;;;;14.65;91.36;97422.34;4193294;28;21245;-82
2022/09/26 07:39:55;;;;;;;10.17;8.87;;;;;;;14.65;91.23;97424.97;4175183;28;20734;-82
2022/09/26 07:42:04;;;;;;;11.50;10.20;;;;;;;14.68;91.82;97413.38;4175666;28;20995;-82
2022/09/26 07:44:08;;;;;;;15.43;10.10;;;;;;;14.77;89.96;97423.81;4191136;28;21297;-83
2022/09/26 07:51:32;;;;;;;12.20;10.30;;;;;;;15.88;90.02;97419.66;4184760;28;20742;-82
2022/09/26 07:53:40;;;;;;;12.67;9.60;;;;;;;15.91;88.94;97418.53;4174159;28;20680;-82
2022/09/26 07:56:10;;;;;;;12.27;9.00;;;;;;;16.37;88.81;97422.44;4162335;28;20657;-82
2022/09/26 07:58:34;;;;;;;14.73;9.80;;;;;;;16.75;86.83;97428.09;4177608;28;20678;-82
2022/09/26 08:00:45;;;;;;;12.30;7.83;;;;;;;16.67;83.11;97417.53;4177923;28;20635;-82
2022/09/26 08:03:03;;;;;;;12.53;8.80;;;;;;;16.73;84.44;97419.53;4177082;28;20639;-82
2022/09/26 08:05:11;;;;;;;10.67;8.80;;;;;;;16.74;86.96;97418.53;4191984;28;20730;-82
2022/09/26 08:07:15;;;;;;;10.20;7.90;;;;;;;16.64;85.46;97415.22;4175820;28;20659;-82
2022/09/26 08:09:31;;;;;;;12.33;7.97;;;;;;;16.50;84.55;97411.53;4194136;28;21148;-82
2022/09/26 08:11:54;;;;;;;8.00;7.20;;;;;;;16.40;83.84;97408.97;4178885;28;20687;-82
2022/09/26 08:14:10;;;;;;;8.53;7.37;;;;;;;16.35;86.36;97406.00;4177858;28;20651;-82
2022/09/26 08:16:38;;;;;;;8.37;6.73;;;;;;;16.34;85.05;97400.88;4176633;28;21215;-82
2022/09/26 08:18:41;;;;;;;7.97;6.87;;;;;;;16.31;86.48;97402.06;4192990;28;21379;-83
2022/09/26 08:20:47;;;;;;;8.80;6.70;;;;;;;16.30;86.28;97402.22;4176412;28;21239;-82
2022/09/26 08:22:50;;;;;;;7.40;6.63;;;;;;;16.32;85.26;97397.59;4173197;28;20657;-82
2022/09/26 08:24:54;;;;;;;8.70;6.60;;;;;;;16.30;84.24;97391.69;4193361;28;20667;-82
2022/09/26 08:27:24;;;;;;;8.60;6.20;;;;;;;16.28;84.17;97391.00;4189748;28;20690;-82
2022/09/26 08:29:29;;;;;;;9.93;6.60;;;;;;;16.29;84.77;97390.03;4161382;28;20709;-82
2022/09/26 08:31:33;;;;;;;7.00;6.10;;;;;;;16.32;84.86;97387.06;4163244;28;20645;-82
2022/09/26 08:33:37;;;;;;;7.70;6.17;;;;;;;16.33;85.79;97388.72;4193240;28;20660;-82
2022/09/26 08:35:41;;;;;;;9.43;5.83;;;;;;;16.36;84.25;97388.41;4158550;28;21223;-82
2022/09/26 08:37:52;;;;;;;7.13;5.40;;;;;;;16.37;84.37;97388.22;4194676;28;20638;-82
2022/09/26 08:40:13;;;;;;;7.10;4.30;;;;;;;16.37;81.60;97390.06;4174590;28;20648;-82
2022/09/26 08:43:03;;;;;;;5.60;4.80;;;;;;;16.37;84.20;97382.97;4177398;28;20677;-83
2022/09/26 08:48:05;;;;;;;5.13;4.27;;;;;;;16.23;81.34;97374.84;4156253;28;20694;-85
2022/09/26 08:50:19;;;;;;;4.67;4.03;;;;;;;16.23;81.82;97374.84;4173024;28;20663;-83
2022/09/26 08:52:29;;;;;;;6.80;6.10;;;;;;;16.32;83.49;97371.28;4187999;28;20687;-82
2022/09/26 08:54:36;;;;;;;6.90;4.70;;;;;;;16.37;82.43;97372.44;4191102;28;20646;-81
2022/09/26 08:56:41;;;;;;;5.50;4.20;;;;;;;16.40;82.05;97372.13;4176000;28;21221;-82
2022/09/26 08:58:50;;;;;;;9.10;4.80;;;;;;;16.32;81.99;97366.84;4186629;28;20670;-81
2022/09/26 09:00:57;;;;;;;6.20;5.07;;;;;;;16.31;81.39;97370.47;4189685;28;20678;-81
2022/09/26 09:03:05;;;;;;;6.23;4.77;;;;;;;16.31;80.03;97369.63;4173119;28;20750;-82
2022/09/26 09:05:14;;;;;;;7.63;6.33;;;;;;;16.33;81.26;97371.13;4156336;28;20689;-81
2022/09/26 09:07:22;;;;;;;6.40;5.20;;;;;;;16.39;81.75;97362.59;4171003;28;20670;-81
2022/09/26 09:09:25;;;;;;;6.37;4.23;;;;;;;16.46;80.22;97360.97;4174474;28;20742;-81
2022/09/26 09:12:07;;;;;;;8.13;5.10;;;;;;;16.60;81.64;97353.31;4175742;28;20655;-81
2022/09/26 09:14:22;;;;;;;6.73;4.30;;;;;;;16.79;80.47;97360.91;4157627;28;20698;-81
2022/09/26 09:16:50;;;;;;;7.33;5.07;;;;;;;16.93;81.16;97355.03;4173027;28;20973;-81
2022/09/26 09:19:08;;;;;;;6.90;4.93;;;;;;;17.02;82.48;97352.25;4173707;28;20760;-82
2022/09/26 09:21:43;;;;;;;8.83;5.03;;;;;;;17.23;80.76;97360.56;4172216;28;20651;-81
2022/09/26 09:24:11;;;;;;;6.00;4.60;;;;;;;17.49;79.89;97356.78;4185734;28;20749;-81
2022/09/26 09:26:19;;;;;;;5.37;4.80;;;;;;;17.69;78.71;97363.34;4153859;28;20730;-81
2022/09/26 09:29:03;;;;;;;5.70;5.10;;;;;;;17.73;77.95;97354.13;4172990;28;20709;-82
2022/09/26 09:31:09;;;;;;;5.60;4.27;;;;;;;17.72;77.08;97343.75;4185984;28;20661;-81
2022/09/26 09:33:28;;;;;;;7.27;4.90;;;;;;;17.81;77.18;97343.56;4170503;28;20648;-81
2022/09/26 09:35:57;;;;;;;7.47;4.67;;;;;;;17.99;77.88;97345.00;4158582;28;21059;-81
2022/09/26 09:38:20;;;;;;;10.37;6.10;;;;;;;18.10;76.30;97347.31;4187360;28;20641;-81
2022/09/26 09:40:38;;;;;;;12.27;7.87;;;;;;;18.15;75.83;97345.00;4172548;28;20659;-81
2022/09/26 09:42:43;;;;;;;5.63;5.00;;;;;;;18.22;75.94;97340.72;4174344;28;21224;-81
2022/09/26 09:44:52;;;;;;;7.00;4.40;;;;;;;18.30;77.52;97334.56;4173176;28;20653;-81
2022/09/26 09:46:55;;;;;;;6.13;4.90;;;;;;;18.36;76.31;97336.50;4178957;28;20668;-81
2022/09/26 09:49:20;;;;;;;5.90;4.17;;;;;;;18.41;76.78;97336.84;4177156;28;20649;-81
2022/09/26 09:51:31;;;;;;;6.40;4.30;;;;;;;18.38;75.46;97329.25;4194685;28;20642;-81
2022/09/26 09:53:56;;;;;;;7.20;4.50;;;;;;;18.16;75.00;97328.19;4190933;28;20709;-81
2022/09/26 09:56:07;;;;;;;6.13;4.10;;;;;;;17.93;74.38;97323.75;4177005;28;21584;-82
2022/09/26 09:58:22;;;;;;;3.70;3.00;;;;;;;17.88;72.80;97315.53;4177200;28;20637;-81
2022/09/26 10:00:27;;;;;;;4.37;3.07;;;;;;;17.91;73.85;97309.91;4159202;28;21845;-79
2022/09/26 10:02:47;;;;;;;9.63;3.13;;;;;;;17.89;72.87;97298.72;4174234;28;20667;-80
2022/09/26 10:05:01;;;;;;;4.10;2.93;;;;;;;17.82;74.92;97305.63;4174912;28;20652;-78
2022/09/26 10:07:04;;;;;;;4.43;2.97;;;;;;;17.80;73.25;97294.44;4156381;28;21089;-79
2022/09/26 10:09:16;;;;;;;5.33;3.40;;;;;;;18.00;75.59;97303.63;4177608;28;20655;-80
2022/09/26 10:12:19;;;;;;;4.83;2.77;;;;;;;18.09;73.73;97300.78;4123579;28;20706;-79
2022/09/26 10:14:44;;;;;;;3.80;2.60;;;;;;;17.99;72.12;97299.31;4126627;28;20749;-81
2022/09/26 10:17:17;;;;;;;3.83;2.90;;;;;;;17.76;71.66;97290.47;4138099;28;21208;-80
2022/09/26 10:19:35;;;;;;;8.10;3.07;;;;;;;17.46;71.56;97282.44;4174157;28;20722;-80